sensor_id;sensor_type;location;lat;lon;timestamp;P1;P2;P0
42410;PMS5003;28056;51.112;0.984;2024-02-16T00:00:03;7;7;
42410;PMS5003;28056;51.112;0.984;2024-02-16T00:02:31;6;6;
42410;PMS5003;28056;51.112;0.984;2024-02-16T00:04:59;9;8;
42410;PMS5003;28056;51.112;0.984;2024-02-16T00:07:26;8;7;
42410;PMS5003;28056;51.112;0.984;2024-02-16T00:09:53;7;7;
42410;PMS5003;28056;51.112;0.984;2024-02-16T00:12:21;8;8;
42410;PMS5003;28056;51.112;0.984;2024-02-16T00:14:49;7;7;
42410;PMS5003;28056;51.112;0.984;2024-02-16T00:17:16;8;8;
42410;PMS5003;28056;51.112;0.984;2024-02-16T00:19:44;13;9;
42410;PMS5003;28056;51.112;0.984;2024-02-16T00:22:12;8;8;
42410;PMS5003;28056;51.112;0.984;2024-02-16T00:24:40;9;9;
42410;PMS5003;28056;51.112;0.984;2024-02-16T00:27:07;7;7;
42410;PMS5003;28056;51.112;0.984;2024-02-16T00:29:35;9;8;
42410;PMS5003;28056;51.112;0.984;2024-02-16T00:32:03;15;15;
42410;PMS5003;28056;51.112;0.984;2024-02-16T00:34:30;8;8;
42410;PMS5003;28056;51.112;0.984;2024-02-16T00:36:58;7;7;
42410;PMS5003;28056;51.112;0.984;2024-02-16T00:39:26;9;7;
42410;PMS5003;28056;51.112;0.984;2024-02-16T00:41:58;11;8;
42410;PMS5003;28056;51.112;0.984;2024-02-16T00:44:26;14;13;
42410;PMS5003;28056;51.112;0.984;2024-02-16T00:46:53;7;7;
42410;PMS5003;28056;51.112;0.984;2024-02-16T00:49:21;12;11;
42410;PMS5003;28056;51.112;0.984;2024-02-16T00:51:48;14;13;
42410;PMS5003;28056;51.112;0.984;2024-02-16T00:54:15;8;8;
42410;PMS5003;28056;51.112;0.984;2024-02-16T00:56:43;7;7;
42410;PMS5003;28056;51.112;0.984;2024-02-16T00:59:11;15;9;
42410;PMS5003;28056;51.112;0.984;2024-02-16T01:04:47;13;8;
42410;PMS5003;28056;51.112;0.984;2024-02-16T01:07:15;7;7;
42410;PMS5003;28056;51.112;0.984;2024-02-16T01:09:42;7;7;
42410;PMS5003;28056;51.112;0.984;2024-02-16T01:12:09;9;8;
42410;PMS5003;28056;51.112;0.984;2024-02-16T01:14:37;8;8;
42410;PMS5003;28056;51.112;0.984;2024-02-16T01:17:05;6;6;
42410;PMS5003;28056;51.112;0.984;2024-02-16T01:19:32;7;7;
42410;PMS5003;28056;51.112;0.984;2024-02-16T01:21:59;8;6;
42410;PMS5003;28056;51.112;0.984;2024-02-16T01:24:27;7;6;
42410;PMS5003;28056;51.112;0.984;2024-02-16T01:26:55;6;6;
42410;PMS5003;28056;51.112;0.984;2024-02-16T01:29:23;12;9;
42410;PMS5003;28056;51.112;0.984;2024-02-16T01:31:50;13;8;
42410;PMS5003;28056;51.112;0.984;2024-02-16T01:34:18;8;8;
42410;PMS5003;28056;51.112;0.984;2024-02-16T01:36:46;12;8;
42410;PMS5003;28056;51.112;0.984;2024-02-16T01:39:14;8;7;
42410;PMS5003;28056;51.112;0.984;2024-02-16T01:41:41;11;8;
42410;PMS5003;28056;51.112;0.984;2024-02-16T01:44:09;16;12;
42410;PMS5003;28056;51.112;0.984;2024-02-16T01:46:36;29;19;
42410;PMS5003;28056;51.112;0.984;2024-02-16T01:49:03;12;9;
42410;PMS5003;28056;51.112;0.984;2024-02-16T01:51:30;11;9;
42410;PMS5003;28056;51.112;0.984;2024-02-16T01:53:59;22;12;
42410;PMS5003;28056;51.112;0.984;2024-02-16T01:56:26;31;27;
42410;PMS5003;28056;51.112;0.984;2024-02-16T01:58:55;16;16;
42410;PMS5003;28056;51.112;0.984;2024-02-16T02:01:22;14;12;
42410;PMS5003;28056;51.112;0.984;2024-02-16T02:03:50;11;9;
42410;PMS5003;28056;51.112;0.984;2024-02-16T02:06:18;8;8;
42410;PMS5003;28056;51.112;0.984;2024-02-16T02:08:46;16;13;
42410;PMS5003;28056;51.112;0.984;2024-02-16T02:11:13;12;11;
42410;PMS5003;28056;51.112;0.984;2024-02-16T02:13:41;11;11;
42410;PMS5003;28056;51.112;0.984;2024-02-16T02:16:08;13;11;
42410;PMS5003;28056;51.112;0.984;2024-02-16T02:18:36;15;9;
42410;PMS5003;28056;51.112;0.984;2024-02-16T02:21:04;11;11;
42410;PMS5003;28056;51.112;0.984;2024-02-16T02:23:32;13;11;
42410;PMS5003;28056;51.112;0.984;2024-02-16T02:25:59;11;11;
42410;PMS5003;28056;51.112;0.984;2024-02-16T02:28:27;14;9;
42410;PMS5003;28056;51.112;0.984;2024-02-16T02:30:54;11;9;
42410;PMS5003;28056;51.112;0.984;2024-02-16T02:33:22;12;9;
42410;PMS5003;28056;51.112;0.984;2024-02-16T02:35:50;13;11;
42410;PMS5003;28056;51.112;0.984;2024-02-16T02:38:18;9;9;
42410;PMS5003;28056;51.112;0.984;2024-02-16T02:40:45;11;11;
42410;PMS5003;28056;51.112;0.984;2024-02-16T02:43:13;9;9;
42410;PMS5003;28056;51.112;0.984;2024-02-16T02:45:41;12;11;
42410;PMS5003;28056;51.112;0.984;2024-02-16T02:48:09;11;11;
42410;PMS5003;28056;51.112;0.984;2024-02-16T02:50:36;11;9;
42410;PMS5003;28056;51.112;0.984;2024-02-16T02:53:04;13;9;
42410;PMS5003;28056;51.112;0.984;2024-02-16T02:55:32;11;11;
42410;PMS5003;28056;51.112;0.984;2024-02-16T02:57:59;13;9;
42410;PMS5003;28056;51.112;0.984;2024-02-16T03:00:27;9;9;
42410;PMS5003;28056;51.112;0.984;2024-02-16T03:02:55;9;9;
42410;PMS5003;28056;51.112;0.984;2024-02-16T03:05:23;15;11;
42410;PMS5003;28056;51.112;0.984;2024-02-16T03:07:51;12;9;
42410;PMS5003;28056;51.112;0.984;2024-02-16T03:10:19;9;9;
42410;PMS5003;28056;51.112;0.984;2024-02-16T03:12:47;12;12;
42410;PMS5003;28056;51.112;0.984;2024-02-16T03:15:14;12;12;
42410;PMS5003;28056;51.112;0.984;2024-02-16T03:17:42;9;9;
42410;PMS5003;28056;51.112;0.984;2024-02-16T03:20:10;11;11;
42410;PMS5003;28056;51.112;0.984;2024-02-16T03:22:37;11;11;
42410;PMS5003;28056;51.112;0.984;2024-02-16T03:25:05;12;9;
42410;PMS5003;28056;51.112;0.984;2024-02-16T03:27:33;9;9;
42410;PMS5003;28056;51.112;0.984;2024-02-16T03:30:01;11;11;
42410;PMS5003;28056;51.112;0.984;2024-02-16T03:32:28;11;11;
42410;PMS5003;28056;51.112;0.984;2024-02-16T03:34:56;14;12;
42410;PMS5003;28056;51.112;0.984;2024-02-16T03:37:24;13;10;
42410;PMS5003;28056;51.112;0.984;2024-02-16T03:39:52;14;12;
42410;PMS5003;28056;51.112;0.984;2024-02-16T03:42:19;11;11;
42410;PMS5003;28056;51.112;0.984;2024-02-16T03:44:47;9;9;
42410;PMS5003;28056;51.112;0.984;2024-02-16T03:47:15;12;12;
42410;PMS5003;28056;51.112;0.984;2024-02-16T03:49:42;14;10;
42410;PMS5003;28056;51.112;0.984;2024-02-16T03:52:10;11;11;
42410;PMS5003;28056;51.112;0.984;2024-02-16T03:54:38;13;13;
42410;PMS5003;28056;51.112;0.984;2024-02-16T03:57:05;11;9;
42410;PMS5003;28056;51.112;0.984;2024-02-16T03:59:33;13;13;
42410;PMS5003;28056;51.112;0.984;2024-02-16T04:02:01;15;12;
42410;PMS5003;28056;51.112;0.984;2024-02-16T04:04:28;12;12;
42410;PMS5003;28056;51.112;0.984;2024-02-16T04:06:56;10;10;
42410;PMS5003;28056;51.112;0.984;2024-02-16T04:09:23;12;10;
42410;PMS5003;28056;51.112;0.984;2024-02-16T04:11:50;10;10;
42410;PMS5003;28056;51.112;0.984;2024-02-16T04:14:18;13;12;
42410;PMS5003;28056;51.112;0.984;2024-02-16T04:16:46;12;12;
42410;PMS5003;28056;51.112;0.984;2024-02-16T04:19:13;9;9;
42410;PMS5003;28056;51.112;0.984;2024-02-16T04:21:41;11;8;
42410;PMS5003;28056;51.112;0.984;2024-02-16T04:24:09;11;11;
42410;PMS5003;28056;51.112;0.984;2024-02-16T04:26:37;8;8;
42410;PMS5003;28056;51.112;0.984;2024-02-16T04:29:04;12;12;
42410;PMS5003;28056;51.112;0.984;2024-02-16T04:31:32;14;14;
42410;PMS5003;28056;51.112;0.984;2024-02-16T04:34:00;12;12;
42410;PMS5003;28056;51.112;0.984;2024-02-16T04:36:28;12;12;
42410;PMS5003;28056;51.112;0.984;2024-02-16T04:38:55;11;11;
42410;PMS5003;28056;51.112;0.984;2024-02-16T04:41:23;14;13;
42410;PMS5003;28056;51.112;0.984;2024-02-16T04:43:51;14;10;
42410;PMS5003;28056;51.112;0.984;2024-02-16T04:46:19;13;12;
42410;PMS5003;28056;51.112;0.984;2024-02-16T04:48:46;14;13;
42410;PMS5003;28056;51.112;0.984;2024-02-16T04:51:14;12;12;
42410;PMS5003;28056;51.112;0.984;2024-02-16T04:53:41;13;13;
42410;PMS5003;28056;51.112;0.984;2024-02-16T04:56:09;14;14;
42410;PMS5003;28056;51.112;0.984;2024-02-16T04:58:40;16;13;
42410;PMS5003;28056;51.112;0.984;2024-02-16T05:01:07;16;16;
42410;PMS5003;28056;51.112;0.984;2024-02-16T05:03:35;13;13;
42410;PMS5003;28056;51.112;0.984;2024-02-16T05:06:03;14;13;
42410;PMS5003;28056;51.112;0.984;2024-02-16T05:08:30;14;13;
42410;PMS5003;28056;51.112;0.984;2024-02-16T05:10:59;16;14;
42410;PMS5003;28056;51.112;0.984;2024-02-16T05:13:27;14;14;
42410;PMS5003;28056;51.112;0.984;2024-02-16T05:15:55;13;13;
42410;PMS5003;28056;51.112;0.984;2024-02-16T05:18:22;17;15;
42410;PMS5003;28056;51.112;0.984;2024-02-16T05:20:50;12;12;
42410;PMS5003;28056;51.112;0.984;2024-02-16T05:23:18;16;16;
42410;PMS5003;28056;51.112;0.984;2024-02-16T05:25:45;13;13;
42410;PMS5003;28056;51.112;0.984;2024-02-16T05:28:13;13;13;
42410;PMS5003;28056;51.112;0.984;2024-02-16T05:30:40;15;15;
42410;PMS5003;28056;51.112;0.984;2024-02-16T05:33:07;20;16;
42410;PMS5003;28056;51.112;0.984;2024-02-16T05:35:35;16;15;
42410;PMS5003;28056;51.112;0.984;2024-02-16T05:38:02;16;16;
42410;PMS5003;28056;51.112;0.984;2024-02-16T05:40:30;17;13;
42410;PMS5003;28056;51.112;0.984;2024-02-16T05:42:58;16;16;
42410;PMS5003;28056;51.112;0.984;2024-02-16T05:45:26;16;16;
42410;PMS5003;28056;51.112;0.984;2024-02-16T05:47:54;16;13;
42410;PMS5003;28056;51.112;0.984;2024-02-16T05:50:21;17;14;
42410;PMS5003;28056;51.112;0.984;2024-02-16T05:52:48;19;17;
42410;PMS5003;28056;51.112;0.984;2024-02-16T05:55:16;16;14;
42410;PMS5003;28056;51.112;0.984;2024-02-16T05:57:44;17;16;
42410;PMS5003;28056;51.112;0.984;2024-02-16T06:00:12;16;15;
42410;PMS5003;28056;51.112;0.984;2024-02-16T06:02:40;16;14;
42410;PMS5003;28056;51.112;0.984;2024-02-16T06:05:08;18;16;
42410;PMS5003;28056;51.112;0.984;2024-02-16T06:07:45;15;15;
42410;PMS5003;28056;51.112;0.984;2024-02-16T06:10:13;17;15;
42410;PMS5003;28056;51.112;0.984;2024-02-16T06:12:40;18;16;
42410;PMS5003;28056;51.112;0.984;2024-02-16T06:15:08;12;12;
42410;PMS5003;28056;51.112;0.984;2024-02-16T06:17:36;16;15;
42410;PMS5003;28056;51.112;0.984;2024-02-16T06:20:04;12;12;
42410;PMS5003;28056;51.112;0.984;2024-02-16T06:22:32;17;15;
42410;PMS5003;28056;51.112;0.984;2024-02-16T06:24:59;16;12;
42410;PMS5003;28056;51.112;0.984;2024-02-16T06:27:27;16;14;
42410;PMS5003;28056;51.112;0.984;2024-02-16T06:29:55;13;13;
42410;PMS5003;28056;51.112;0.984;2024-02-16T06:32:22;13;13;
42410;PMS5003;28056;51.112;0.984;2024-02-16T06:34:48;17;17;
42410;PMS5003;28056;51.112;0.984;2024-02-16T06:37:16;14;14;
42410;PMS5003;28056;51.112;0.984;2024-02-16T06:39:44;12;12;
42410;PMS5003;28056;51.112;0.984;2024-02-16T06:42:12;14;14;
42410;PMS5003;28056;51.112;0.984;2024-02-16T06:44:40;14;14;
42410;PMS5003;28056;51.112;0.984;2024-02-16T06:47:07;17;16;
42410;PMS5003;28056;51.112;0.984;2024-02-16T06:49:34;13;13;
42410;PMS5003;28056;51.112;0.984;2024-02-16T06:52:01;14;13;
42410;PMS5003;28056;51.112;0.984;2024-02-16T06:54:29;12;12;
42410;PMS5003;28056;51.112;0.984;2024-02-16T06:56:57;12;12;
42410;PMS5003;28056;51.112;0.984;2024-02-16T06:59:24;13;13;
42410;PMS5003;28056;51.112;0.984;2024-02-16T07:01:52;10;10;
42410;PMS5003;28056;51.112;0.984;2024-02-16T07:04:19;13;11;
42410;PMS5003;28056;51.112;0.984;2024-02-16T07:06:47;13;13;
42410;PMS5003;28056;51.112;0.984;2024-02-16T07:09:15;10;10;
42410;PMS5003;28056;51.112;0.984;2024-02-16T07:11:42;12;12;
42410;PMS5003;28056;51.112;0.984;2024-02-16T07:14:10;15;15;
42410;PMS5003;28056;51.112;0.984;2024-02-16T07:16:37;15;15;
42410;PMS5003;28056;51.112;0.984;2024-02-16T07:19:05;16;13;
42410;PMS5003;28056;51.112;0.984;2024-02-16T07:21:33;12;11;
42410;PMS5003;28056;51.112;0.984;2024-02-16T07:24:01;11;10;
42410;PMS5003;28056;51.112;0.984;2024-02-16T07:26:28;13;12;
42410;PMS5003;28056;51.112;0.984;2024-02-16T07:28:56;13;12;
42410;PMS5003;28056;51.112;0.984;2024-02-16T07:31:23;15;12;
42410;PMS5003;28056;51.112;0.984;2024-02-16T07:33:51;10;8;
42410;PMS5003;28056;51.112;0.984;2024-02-16T07:36:19;12;10;
42410;PMS5003;28056;51.112;0.984;2024-02-16T07:38:46;11;11;
42410;PMS5003;28056;51.112;0.984;2024-02-16T07:41:14;8;8;
42410;PMS5003;28056;51.112;0.984;2024-02-16T07:43:41;11;10;
42410;PMS5003;28056;51.112;0.984;2024-02-16T07:46:09;11;8;
42410;PMS5003;28056;51.112;0.984;2024-02-16T07:48:36;7;7;
42410;PMS5003;28056;51.112;0.984;2024-02-16T07:51:04;7;7;
42410;PMS5003;28056;51.112;0.984;2024-02-16T07:53:32;7;7;
42410;PMS5003;28056;51.112;0.984;2024-02-16T07:56:00;9;9;
42410;PMS5003;28056;51.112;0.984;2024-02-16T07:58:27;9;9;
42410;PMS5003;28056;51.112;0.984;2024-02-16T08:00:55;12;9;
42410;PMS5003;28056;51.112;0.984;2024-02-16T08:03:23;12;9;
42410;PMS5003;28056;51.112;0.984;2024-02-16T08:05:51;11;10;
42410;PMS5003;28056;51.112;0.984;2024-02-16T08:08:18;11;11;
42410;PMS5003;28056;51.112;0.984;2024-02-16T08:10:46;12;12;
42410;PMS5003;28056;51.112;0.984;2024-02-16T08:13:14;13;13;
42410;PMS5003;28056;51.112;0.984;2024-02-16T08:15:41;13;12;
42410;PMS5003;28056;51.112;0.984;2024-02-16T08:18:09;13;13;
42410;PMS5003;28056;51.112;0.984;2024-02-16T08:20:36;18;15;
42410;PMS5003;28056;51.112;0.984;2024-02-16T08:23:03;13;13;
42410;PMS5003;28056;51.112;0.984;2024-02-16T08:25:31;13;11;
42410;PMS5003;28056;51.112;0.984;2024-02-16T08:27:59;15;15;
42410;PMS5003;28056;51.112;0.984;2024-02-16T08:30:27;11;11;
42410;PMS5003;28056;51.112;0.984;2024-02-16T08:32:54;11;8;
42410;PMS5003;28056;51.112;0.984;2024-02-16T08:35:22;10;10;
42410;PMS5003;28056;51.112;0.984;2024-02-16T08:37:50;12;12;
42410;PMS5003;28056;51.112;0.984;2024-02-16T08:40:17;10;10;
42410;PMS5003;28056;51.112;0.984;2024-02-16T08:42:44;8;8;
42410;PMS5003;28056;51.112;0.984;2024-02-16T08:45:12;7;7;
42410;PMS5003;28056;51.112;0.984;2024-02-16T08:47:40;7;7;
42410;PMS5003;28056;51.112;0.984;2024-02-16T08:50:08;8;8;
42410;PMS5003;28056;51.112;0.984;2024-02-16T08:52:36;12;8;
42410;PMS5003;28056;51.112;0.984;2024-02-16T08:55:04;5;5;
42410;PMS5003;28056;51.112;0.984;2024-02-16T08:57:31;6;6;
42410;PMS5003;28056;51.112;0.984;2024-02-16T08:59:59;5;5;
42410;PMS5003;28056;51.112;0.984;2024-02-16T09:02:27;2;2;
42410;PMS5003;28056;51.112;0.984;2024-02-16T09:04:55;4;4;
42410;PMS5003;28056;51.112;0.984;2024-02-16T09:07:23;3;3;
42410;PMS5003;28056;51.112;0.984;2024-02-16T09:09:50;4;4;
42410;PMS5003;28056;51.112;0.984;2024-02-16T09:12:18;2;2;
42410;PMS5003;28056;51.112;0.984;2024-02-16T09:14:46;2;2;
42410;PMS5003;28056;51.112;0.984;2024-02-16T09:17:13;3;2;
42410;PMS5003;28056;51.112;0.984;2024-02-16T09:19:41;4;1;
42410;PMS5003;28056;51.112;0.984;2024-02-16T09:22:09;2;2;
42410;PMS5003;28056;51.112;0.984;2024-02-16T09:24:37;1;1;
42410;PMS5003;28056;51.112;0.984;2024-02-16T09:27:05;3;1;
42410;PMS5003;28056;51.112;0.984;2024-02-16T09:29:32;0;0;
42410;PMS5003;28056;51.112;0.984;2024-02-16T09:32:00;1;1;
42410;PMS5003;28056;51.112;0.984;2024-02-16T09:34:27;3;1;
42410;PMS5003;28056;51.112;0.984;2024-02-16T09:36:54;0;0;
42410;PMS5003;28056;51.112;0.984;2024-02-16T09:39:22;2;0;
42410;PMS5003;28056;51.112;0.984;2024-02-16T09:41:50;1;1;
42410;PMS5003;28056;51.112;0.984;2024-02-16T09:44:18;0;0;
42410;PMS5003;28056;51.112;0.984;2024-02-16T09:46:48;0;0;
42410;PMS5003;28056;51.112;0.984;2024-02-16T09:49:16;1;1;
42410;PMS5003;28056;51.112;0.984;2024-02-16T09:51:44;2;2;
42410;PMS5003;28056;51.112;0.984;2024-02-16T09:54:12;1;1;
42410;PMS5003;28056;51.112;0.984;2024-02-16T09:56:40;1;1;
42410;PMS5003;28056;51.112;0.984;2024-02-16T09:59:07;1;1;
42410;PMS5003;28056;51.112;0.984;2024-02-16T10:01:34;0;0;
42410;PMS5003;28056;51.112;0.984;2024-02-16T10:04:05;1;1;
42410;PMS5003;28056;51.112;0.984;2024-02-16T10:06:33;0;0;
42410;PMS5003;28056;51.112;0.984;2024-02-16T10:09:11;2;1;
42410;PMS5003;28056;51.112;0.984;2024-02-16T10:11:48;1;1;
42410;PMS5003;28056;51.112;0.984;2024-02-16T10:14:16;1;1;
42410;PMS5003;28056;51.112;0.984;2024-02-16T10:16:44;1;1;
42410;PMS5003;28056;51.112;0.984;2024-02-16T10:19:11;1;1;
42410;PMS5003;28056;51.112;0.984;2024-02-16T10:21:39;3;1;
42410;PMS5003;28056;51.112;0.984;2024-02-16T10:24:08;1;1;
42410;PMS5003;28056;51.112;0.984;2024-02-16T10:26:36;1;1;
42410;PMS5003;28056;51.112;0.984;2024-02-16T10:29:04;2;2;
42410;PMS5003;28056;51.112;0.984;2024-02-16T10:31:33;1;1;
42410;PMS5003;28056;51.112;0.984;2024-02-16T10:34:01;1;1;
42410;PMS5003;28056;51.112;0.984;2024-02-16T10:36:31;1;1;
42410;PMS5003;28056;51.112;0.984;2024-02-16T10:39:00;1;1;
42410;PMS5003;28056;51.112;0.984;2024-02-16T10:41:28;1;1;
42410;PMS5003;28056;51.112;0.984;2024-02-16T10:43:56;2;2;
42410;PMS5003;28056;51.112;0.984;2024-02-16T10:46:23;4;4;
42410;PMS5003;28056;51.112;0.984;2024-02-16T10:48:51;3;1;
42410;PMS5003;28056;51.112;0.984;2024-02-16T10:51:22;2;2;
42410;PMS5003;28056;51.112;0.984;2024-02-16T10:53:52;1;1;
42410;PMS5003;28056;51.112;0.984;2024-02-16T10:56:38;2;2;
42410;PMS5003;28056;51.112;0.984;2024-02-16T10:59:07;6;2;
42410;PMS5003;28056;51.112;0.984;2024-02-16T11:01:38;2;2;
42410;PMS5003;28056;51.112;0.984;2024-02-16T11:04:06;2;1;
42410;PMS5003;28056;51.112;0.984;2024-02-16T11:06:52;2;2;
42410;PMS5003;28056;51.112;0.984;2024-02-16T11:09:28;3;2;
42410;PMS5003;28056;51.112;0.984;2024-02-16T11:11:59;2;2;
42410;PMS5003;28056;51.112;0.984;2024-02-16T11:14:34;7;2;
42410;PMS5003;28056;51.112;0.984;2024-02-16T11:17:01;1;1;
42410;PMS5003;28056;51.112;0.984;2024-02-16T11:19:33;2;1;
42410;PMS5003;28056;51.112;0.984;2024-02-16T11:22:03;3;3;
42410;PMS5003;28056;51.112;0.984;2024-02-16T11:24:31;2;2;
42410;PMS5003;28056;51.112;0.984;2024-02-16T11:27:01;3;3;
42410;PMS5003;28056;51.112;0.984;2024-02-16T11:29:31;2;2;
42410;PMS5003;28056;51.112;0.984;2024-02-16T11:32:00;2;2;
42410;PMS5003;28056;51.112;0.984;2024-02-16T11:34:28;1;1;
42410;PMS5003;28056;51.112;0.984;2024-02-16T11:36:56;2;2;
42410;PMS5003;28056;51.112;0.984;2024-02-16T11:39:24;4;4;
42410;PMS5003;28056;51.112;0.984;2024-02-16T11:41:59;1;1;
42410;PMS5003;28056;51.112;0.984;2024-02-16T11:44:28;7;3;
42410;PMS5003;28056;51.112;0.984;2024-02-16T11:46:56;4;4;
42410;PMS5003;28056;51.112;0.984;2024-02-16T11:49:24;2;2;
42410;PMS5003;28056;51.112;0.984;2024-02-16T11:51:51;7;4;
42410;PMS5003;28056;51.112;0.984;2024-02-16T11:54:19;3;3;
42410;PMS5003;28056;51.112;0.984;2024-02-16T11:56:47;2;2;
42410;PMS5003;28056;51.112;0.984;2024-02-16T11:59:15;2;2;
42410;PMS5003;28056;51.112;0.984;2024-02-16T12:01:51;3;3;
42410;PMS5003;28056;51.112;0.984;2024-02-16T12:04:20;3;3;
42410;PMS5003;28056;51.112;0.984;2024-02-16T12:06:50;4;4;
42410;PMS5003;28056;51.112;0.984;2024-02-16T12:09:18;3;3;
42410;PMS5003;28056;51.112;0.984;2024-02-16T12:11:47;2;2;
42410;PMS5003;28056;51.112;0.984;2024-02-16T12:14:14;8;5;
42410;PMS5003;28056;51.112;0.984;2024-02-16T12:16:42;4;4;
42410;PMS5003;28056;51.112;0.984;2024-02-16T12:19:13;5;3;
42410;PMS5003;28056;51.112;0.984;2024-02-16T12:21:41;2;2;
42410;PMS5003;28056;51.112;0.984;2024-02-16T12:24:08;4;3;
42410;PMS5003;28056;51.112;0.984;2024-02-16T12:26:36;6;3;
42410;PMS5003;28056;51.112;0.984;2024-02-16T12:29:04;5;2;
42410;PMS5003;28056;51.112;0.984;2024-02-16T12:31:31;3;3;
42410;PMS5003;28056;51.112;0.984;2024-02-16T12:33:59;2;2;
42410;PMS5003;28056;51.112;0.984;2024-02-16T12:36:27;2;2;
42410;PMS5003;28056;51.112;0.984;2024-02-16T12:38:54;3;3;
42410;PMS5003;28056;51.112;0.984;2024-02-16T12:41:22;2;2;
42410;PMS5003;28056;51.112;0.984;2024-02-16T12:43:50;8;4;
42410;PMS5003;28056;51.112;0.984;2024-02-16T12:46:18;3;3;
42410;PMS5003;28056;51.112;0.984;2024-02-16T12:48:46;5;3;
42410;PMS5003;28056;51.112;0.984;2024-02-16T12:51:13;2;2;
42410;PMS5003;28056;51.112;0.984;2024-02-16T12:53:41;3;1;
42410;PMS5003;28056;51.112;0.984;2024-02-16T12:56:09;3;2;
42410;PMS5003;28056;51.112;0.984;2024-02-16T12:58:36;2;2;
42410;PMS5003;28056;51.112;0.984;2024-02-16T13:01:04;2;2;
42410;PMS5003;28056;51.112;0.984;2024-02-16T13:03:33;1;1;
42410;PMS5003;28056;51.112;0.984;2024-02-16T13:06:01;3;2;
42410;PMS5003;28056;51.112;0.984;2024-02-16T13:08:34;2;2;
42410;PMS5003;28056;51.112;0.984;2024-02-16T13:11:02;5;3;
42410;PMS5003;28056;51.112;0.984;2024-02-16T13:13:30;4;2;
42410;PMS5003;28056;51.112;0.984;2024-02-16T13:15:57;2;2;
42410;PMS5003;28056;51.112;0.984;2024-02-16T13:18:25;3;3;
42410;PMS5003;28056;51.112;0.984;2024-02-16T13:20:52;1;1;
42410;PMS5003;28056;51.112;0.984;2024-02-16T13:23:20;2;2;
42410;PMS5003;28056;51.112;0.984;2024-02-16T13:25:48;3;3;
42410;PMS5003;28056;51.112;0.984;2024-02-16T13:28:15;3;3;
42410;PMS5003;28056;51.112;0.984;2024-02-16T13:30:48;5;2;
42410;PMS5003;28056;51.112;0.984;2024-02-16T13:33:17;1;1;
42410;PMS5003;28056;51.112;0.984;2024-02-16T13:35:49;1;1;
42410;PMS5003;28056;51.112;0.984;2024-02-16T13:38:18;2;2;
42410;PMS5003;28056;51.112;0.984;2024-02-16T13:40:47;1;1;
42410;PMS5003;28056;51.112;0.984;2024-02-16T13:43:16;1;1;
42410;PMS5003;28056;51.112;0.984;2024-02-16T13:45:47;1;1;
42410;PMS5003;28056;51.112;0.984;2024-02-16T13:48:16;2;2;
42410;PMS5003;28056;51.112;0.984;2024-02-16T13:50:44;1;1;
42410;PMS5003;28056;51.112;0.984;2024-02-16T13:53:12;2;2;
42410;PMS5003;28056;51.112;0.984;2024-02-16T13:55:41;2;2;
42410;PMS5003;28056;51.112;0.984;2024-02-16T13:58:09;1;1;
42410;PMS5003;28056;51.112;0.984;2024-02-16T14:00:37;4;2;
42410;PMS5003;28056;51.112;0.984;2024-02-16T14:03:05;2;2;
42410;PMS5003;28056;51.112;0.984;2024-02-16T14:05:41;0;0;
42410;PMS5003;28056;51.112;0.984;2024-02-16T14:08:11;1;1;
42410;PMS5003;28056;51.112;0.984;2024-02-16T14:10:38;1;1;
42410;PMS5003;28056;51.112;0.984;2024-02-16T14:13:06;2;2;
42410;PMS5003;28056;51.112;0.984;2024-02-16T14:15:33;3;2;
42410;PMS5003;28056;51.112;0.984;2024-02-16T14:18:02;1;1;
42410;PMS5003;28056;51.112;0.984;2024-02-16T14:20:34;1;1;
42410;PMS5003;28056;51.112;0.984;2024-02-16T14:23:01;4;2;
42410;PMS5003;28056;51.112;0.984;2024-02-16T14:25:29;1;1;
42410;PMS5003;28056;51.112;0.984;2024-02-16T14:27:56;7;4;
42410;PMS5003;28056;51.112;0.984;2024-02-16T14:30:24;2;2;
42410;PMS5003;28056;51.112;0.984;2024-02-16T14:32:52;1;1;
42410;PMS5003;28056;51.112;0.984;2024-02-16T14:35:19;2;2;
42410;PMS5003;28056;51.112;0.984;2024-02-16T14:37:47;1;1;
42410;PMS5003;28056;51.112;0.984;2024-02-16T14:40:15;1;1;
42410;PMS5003;28056;51.112;0.984;2024-02-16T14:42:42;0;0;
42410;PMS5003;28056;51.112;0.984;2024-02-16T14:45:10;1;1;
42410;PMS5003;28056;51.112;0.984;2024-02-16T14:47:38;1;1;
42410;PMS5003;28056;51.112;0.984;2024-02-16T14:50:05;1;1;
42410;PMS5003;28056;51.112;0.984;2024-02-16T14:52:33;1;1;
42410;PMS5003;28056;51.112;0.984;2024-02-16T14:55:07;1;1;
42410;PMS5003;28056;51.112;0.984;2024-02-16T14:57:34;2;1;
42410;PMS5003;28056;51.112;0.984;2024-02-16T15:00:02;0;0;
42410;PMS5003;28056;51.112;0.984;2024-02-16T15:02:29;1;1;
42410;PMS5003;28056;51.112;0.984;2024-02-16T15:04:57;1;1;
42410;PMS5003;28056;51.112;0.984;2024-02-16T15:07:24;3;2;
42410;PMS5003;28056;51.112;0.984;2024-02-16T15:09:52;1;1;
42410;PMS5003;28056;51.112;0.984;2024-02-16T15:12:20;1;1;
42410;PMS5003;28056;51.112;0.984;2024-02-16T15:14:47;2;1;
42410;PMS5003;28056;51.112;0.984;2024-02-16T15:17:16;1;0;
42410;PMS5003;28056;51.112;0.984;2024-02-16T15:19:43;1;1;
42410;PMS5003;28056;51.112;0.984;2024-02-16T15:22:11;2;1;
42410;PMS5003;28056;51.112;0.984;2024-02-16T15:24:39;1;1;
42410;PMS5003;28056;51.112;0.984;2024-02-16T15:27:06;2;2;
42410;PMS5003;28056;51.112;0.984;2024-02-16T15:29:34;3;3;
42410;PMS5003;28056;51.112;0.984;2024-02-16T15:32:02;1;1;
42410;PMS5003;28056;51.112;0.984;2024-02-16T15:34:29;1;1;
42410;PMS5003;28056;51.112;0.984;2024-02-16T15:36:57;1;1;
42410;PMS5003;28056;51.112;0.984;2024-02-16T15:39:25;2;2;
42410;PMS5003;28056;51.112;0.984;2024-02-16T15:41:52;0;0;
42410;PMS5003;28056;51.112;0.984;2024-02-16T15:44:20;1;1;
42410;PMS5003;28056;51.112;0.984;2024-02-16T15:46:48;3;1;
42410;PMS5003;28056;51.112;0.984;2024-02-16T15:49:16;1;1;
42410;PMS5003;28056;51.112;0.984;2024-02-16T15:51:43;2;0;
42410;PMS5003;28056;51.112;0.984;2024-02-16T15:54:11;0;0;
42410;PMS5003;28056;51.112;0.984;2024-02-16T15:56:39;0;0;
42410;PMS5003;28056;51.112;0.984;2024-02-16T15:59:06;0;0;
42410;PMS5003;28056;51.112;0.984;2024-02-16T16:01:34;1;1;
42410;PMS5003;28056;51.112;0.984;2024-02-16T16:04:02;0;0;
42410;PMS5003;28056;51.112;0.984;2024-02-16T16:06:29;0;0;
42410;PMS5003;28056;51.112;0.984;2024-02-16T16:08:57;0;0;
42410;PMS5003;28056;51.112;0.984;2024-02-16T16:11:25;3;3;
42410;PMS5003;28056;51.112;0.984;2024-02-16T16:13:52;1;1;
42410;PMS5003;28056;51.112;0.984;2024-02-16T16:16:20;0;0;
42410;PMS5003;28056;51.112;0.984;2024-02-16T16:18:48;0;0;
42410;PMS5003;28056;51.112;0.984;2024-02-16T16:21:15;0;0;
42410;PMS5003;28056;51.112;0.984;2024-02-16T16:23:43;0;0;
42410;PMS5003;28056;51.112;0.984;2024-02-16T16:26:11;0;0;
42410;PMS5003;28056;51.112;0.984;2024-02-16T16:28:38;0;0;
42410;PMS5003;28056;51.112;0.984;2024-02-16T16:31:06;3;3;
42410;PMS5003;28056;51.112;0.984;2024-02-16T16:33:34;1;0;
42410;PMS5003;28056;51.112;0.984;2024-02-16T16:36:01;3;1;
42410;PMS5003;28056;51.112;0.984;2024-02-16T16:38:29;0;0;
42410;PMS5003;28056;51.112;0.984;2024-02-16T16:40:57;2;0;
42410;PMS5003;28056;51.112;0.984;2024-02-16T16:43:24;0;0;
42410;PMS5003;28056;51.112;0.984;2024-02-16T16:45:51;0;0;